Time;durP1;ratioP1;P1;durP2;ratioP2;P2;SDS_P1;SDS_P2;PMS_P1;PMS_P2;Temp;Humidity;BMP_temperature;BMP_pressure;BME280_temperature;BME280_humidity;BME280_pressure;Samples;Min_cycle;Max_cycle;Signal;HPM_P1;HPM_P2
2022/06/24 00:01:28;;;;;;;2.33;2.13;;;;;;;;;;4938097;29;20600;-74
2022/06/24 00:03:57;;;;;;;3.40;2.20;;;;;;;;;;4938897;29;20310;-74
2022/06/24 00:06:29;;;;;;;3.03;2.20;;;;;;;;;;4930299;29;20620;-74
2022/06/24 00:08:59;;;;;;;4.38;2.60;;;;;;;;;;4931875;29;20215;-74
2022/06/24 00:11:29;;;;;;;2.60;2.40;;;;;;;;;;4928285;29;20278;-74
2022/06/24 00:14:08;;;;;;;2.65;2.45;;;;;;;;;;4938695;29;20668;-74
2022/06/24 00:16:55;;;;;;;2.50;2.30;;;;;;;;;;4936647;29;20634;-74
2022/06/24 00:19:25;;;;;;;2.60;2.40;;;;;;;;;;4925075;29;20715;-74
2022/06/24 00:22:00;;;;;;;2.97;2.50;;;;;;;;;;4937566;29;20223;-74
2022/06/24 00:24:29;;;;;;;3.53;3.08;;;;;;;;;;4938596;29;20230;-74
2022/06/24 00:26:59;;;;;;;5.22;2.60;;;;;;;;;;4935888;29;20211;-74
2022/06/24 00:29:28;;;;;;;2.78;2.42;;;;;;;;;;4938148;29;20207;-75
2022/06/24 00:32:07;;;;;;;3.25;2.50;;;;;;;;;;4938043;29;20207;-74
2022/06/24 00:34:36;;;;;;;3.55;2.60;;;;;;;;;;4938031;29;20227;-74
2022/06/24 00:37:23;;;;;;;2.97;2.70;;;;;;;;;;4937268;29;20203;-74
2022/06/24 00:39:51;;;;;;;2.40;2.20;;;;;;;;;;4927097;29;20679;-75
2022/06/24 00:42:22;;;;;;;3.70;2.90;;;;;;;;;;4928989;29;20239;-74
2022/06/24 00:44:52;;;;;;;3.25;2.60;;;;;;;;;;4938567;29;20317;-74
2022/06/24 00:47:22;;;;;;;2.78;2.58;;;;;;;;;;4933538;29;20649;-74
2022/06/24 00:49:51;;;;;;;3.83;2.58;;;;;;;;;;4935773;29;20227;-74
2022/06/24 00:52:19;;;;;;;3.60;2.65;;;;;;;;;;4927908;29;20207;-74
2022/06/24 00:54:48;;;;;;;3.53;2.83;;;;;;;;;;4937917;29;20235;-74
2022/06/24 00:57:16;;;;;;;3.28;2.65;;;;;;;;;;4935295;29;20212;-74
2022/06/24 00:59:46;;;;;;;3.92;2.67;;;;;;;;;;4937434;29;20207;-74
2022/06/24 01:02:16;;;;;;;3.28;2.28;;;;;;;;;;4932103;29;20223;-74
2022/06/24 01:04:45;;;;;;;3.63;2.70;;;;;;;;;;4938054;29;20227;-74
2022/06/24 01:07:14;;;;;;;2.95;2.67;;;;;;;;;;4936127;29;20208;-74
2022/06/24 01:09:42;;;;;;;2.63;2.42;;;;;;;;;;4937526;29;20211;-74
2022/06/24 01:12:11;;;;;;;5.55;2.72;;;;;;;;;;4937248;29;20211;-74
2022/06/24 01:14:40;;;;;;;2.78;2.53;;;;;;;;;;4933282;29;20243;-74
2022/06/24 01:17:13;;;;;;;4.32;2.88;;;;;;;;;;4936523;29;20270;-74
2022/06/24 01:19:42;;;;;;;3.55;2.90;;;;;;;;;;4937572;29;20546;-74
2022/06/24 01:22:11;;;;;;;3.60;2.67;;;;;;;;;;4942251;29;20227;-74
2022/06/24 01:24:40;;;;;;;3.60;2.60;;;;;;;;;;4948956;28;20234;-74
2022/06/24 01:27:08;;;;;;;3.88;2.70;;;;;;;;;;4942868;29;20263;-74
2022/06/24 01:29:37;;;;;;;2.78;2.45;;;;;;;;;;4929198;29;20486;-74
2022/06/24 01:32:06;;;;;;;4.10;2.83;;;;;;;;;;4936641;29;20204;-74
2022/06/24 01:34:34;;;;;;;3.00;2.70;;;;;;;;;;4937482;29;20286;-74
2022/06/24 01:37:03;;;;;;;2.90;2.70;;;;;;;;;;4943069;29;20203;-74
2022/06/24 01:39:33;;;;;;;4.20;2.90;;;;;;;;;;4931554;29;20203;-75
2022/06/24 01:42:01;;;;;;;3.33;2.65;;;;;;;;;;4930042;29;20223;-74
2022/06/24 01:44:29;;;;;;;2.65;2.45;;;;;;;;;;4924043;29;20319;-74
2022/06/24 01:46:58;;;;;;;5.57;2.85;;;;;;;;;;4936155;29;20207;-74
2022/06/24 01:49:27;;;;;;;3.40;2.80;;;;;;;;;;4936189;29;20199;-74
2022/06/24 01:51:56;;;;;;;2.97;2.67;;;;;;;;;;4937139;29;20623;-74
2022/06/24 01:54:24;;;;;;;3.05;2.75;;;;;;;;;;4936754;29;20235;-74
2022/06/24 01:56:54;;;;;;;3.40;3.00;;;;;;;;;;4934596;29;20204;-74
2022/06/24 01:59:23;;;;;;;3.08;2.78;;;;;;;;;;4936573;29;20688;-74
2022/06/24 02:01:51;;;;;;;3.25;2.95;;;;;;;;;;4932696;29;20227;-74
2022/06/24 02:04:20;;;;;;;3.15;2.85;;;;;;;;;;4937135;29;20271;-74
2022/06/24 02:06:48;;;;;;;4.18;2.92;;;;;;;;;;4946276;29;20207;-74
2022/06/24 02:09:17;;;;;;;3.28;2.63;;;;;;;;;;4936159;29;20219;-74
2022/06/24 02:14:33;;;;;;;3.20;2.90;;;;;;;;;;4934427;29;20286;-74
2022/06/24 02:17:01;;;;;;;4.25;2.92;;;;;;;;;;4933018;29;20554;-74
2022/06/24 02:19:30;;;;;;;3.05;2.60;;;;;;;;;;4935769;29;20250;-74
2022/06/24 02:21:58;;;;;;;3.72;3.03;;;;;;;;;;4934016;29;20648;-73
2022/06/24 02:24:27;;;;;;;3.60;3.30;;;;;;;;;;4935960;29;20223;-74
2022/06/24 02:26:55;;;;;;;3.45;3.00;;;;;;;;;;4934836;29;20921;-74
2022/06/24 02:29:24;;;;;;;4.00;2.70;;;;;;;;;;4935597;29;20207;-74
2022/06/24 02:31:53;;;;;;;3.85;2.70;;;;;;;;;;4935257;29;20258;-74
2022/06/24 02:34:22;;;;;;;5.47;2.97;;;;;;;;;;4935725;29;20690;-74
2022/06/24 02:36:50;;;;;;;3.97;2.88;;;;;;;;;;4932947;29;20699;-74
2022/06/24 02:39:18;;;;;;;3.47;3.13;;;;;;;;;;4935192;29;20211;-74
2022/06/24 02:41:47;;;;;;;3.15;2.80;;;;;;;;;;4936344;29;20226;-74
2022/06/24 02:44:15;;;;;;;4.20;2.90;;;;;;;;;;4935958;29;20223;-74
2022/06/24 02:46:44;;;;;;;4.68;2.95;;;;;;;;;;4923895;29;20222;-74
2022/06/24 02:49:14;;;;;;;3.53;3.05;;;;;;;;;;4930697;29;20242;-75
2022/06/24 02:51:42;;;;;;;3.80;2.92;;;;;;;;;;4935568;29;20215;-74
2022/06/24 02:54:10;;;;;;;2.70;2.45;;;;;;;;;;4935941;29;20238;-74
2022/06/24 02:56:39;;;;;;;4.38;2.83;;;;;;;;;;4933398;29;20750;-74
2022/06/24 02:59:12;;;;;;;2.85;2.65;;;;;;;;;;4932966;29;20203;-74
2022/06/24 03:01:40;;;;;;;3.35;3.00;;;;;;;;;;4935211;29;20211;-74
2022/06/24 03:04:09;;;;;;;5.97;3.20;;;;;;;;;;4931382;29;20228;-74
2022/06/24 03:06:39;;;;;;;4.00;3.17;;;;;;;;;;4936183;29;20275;-74
2022/06/24 03:09:07;;;;;;;5.05;3.25;;;;;;;;;;4935838;29;20203;-74
2022/06/24 03:11:36;;;;;;;2.95;2.65;;;;;;;;;;4936181;29;20671;-75
2022/06/24 03:14:04;;;;;;;2.92;2.72;;;;;;;;;;4937324;29;20235;-74
2022/06/24 03:16:33;;;;;;;3.20;2.90;;;;;;;;;;4938306;29;20257;-74
2022/06/24 03:19:01;;;;;;;5.53;3.40;;;;;;;;;;4938934;29;20732;-74
2022/06/24 03:21:29;;;;;;;3.38;3.08;;;;;;;;;;4937978;29;20588;-74
2022/06/24 03:23:59;;;;;;;5.63;3.30;;;;;;;;;;4938406;29;20235;-74
2022/06/24 03:26:28;;;;;;;5.45;2.75;;;;;;;;;;4939582;29;20214;-74
2022/06/24 03:28:56;;;;;;;5.60;2.80;;;;;;;;;;4939389;29;20214;-74
2022/06/24 03:31:25;;;;;;;4.00;2.63;;;;;;;;;;4938486;29;20251;-74
2022/06/24 03:33:55;;;;;;;4.43;2.75;;;;;;;;;;4935483;29;20204;-74
2022/06/24 03:36:24;;;;;;;3.63;3.20;;;;;;;;;;4939238;29;20205;-74
2022/06/24 03:38:52;;;;;;;3.53;2.95;;;;;;;;;;4938838;29;20204;-74
2022/06/24 03:41:22;;;;;;;3.28;2.97;;;;;;;;;;4938566;29;20211;-74
2022/06/24 03:43:50;;;;;;;4.90;3.08;;;;;;;;;;4932792;29;20286;-75
2022/06/24 03:46:19;;;;;;;3.95;3.08;;;;;;;;;;4921556;29;20395;-74
2022/06/24 03:48:47;;;;;;;4.95;3.10;;;;;;;;;;4938249;29;20210;-75
2022/06/24 03:51:16;;;;;;;3.60;3.22;;;;;;;;;;4936755;29;20719;-74
2022/06/24 03:53:44;;;;;;;3.72;3.28;;;;;;;;;;4924197;29;20254;-74
2022/06/24 03:56:13;;;;;;;5.60;3.30;;;;;;;;;;4939518;29;20214;-74
2022/06/24 03:58:42;;;;;;;5.57;3.10;;;;;;;;;;4923630;29;20199;-74
2022/06/24 04:01:11;;;;;;;3.97;2.95;;;;;;;;;;4937510;29;20208;-74
2022/06/24 04:03:39;;;;;;;3.95;3.10;;;;;;;;;;4939145;29;21047;-74
2022/06/24 04:06:08;;;;;;;3.30;3.00;;;;;;;;;;4938977;29;20211;-74
2022/06/24 04:08:37;;;;;;;3.95;3.03;;;;;;;;;;4937358;29;20663;-74
2022/06/24 04:11:12;;;;;;;4.22;3.20;;;;;;;;;;4935763;29;20648;-74
2022/06/24 04:13:40;;;;;;;3.30;3.00;;;;;;;;;;4937088;29;20207;-75
2022/06/24 04:16:10;;;;;;;3.58;3.10;;;;;;;;;;4938729;29;20207;-75
2022/06/24 04:18:39;;;;;;;5.85;3.25;;;;;;;;;;4934916;29;20215;-74
2022/06/24 04:21:11;;;;;;;4.93;3.20;;;;;;;;;;4927904;29;20716;-74
2022/06/24 04:23:40;;;;;;;5.13;3.45;;;;;;;;;;4937278;29;20762;-75
2022/06/24 04:26:09;;;;;;;5.22;3.58;;;;;;;;;;4931783;29;20628;-74
2022/06/24 04:28:37;;;;;;;3.53;3.00;;;;;;;;;;4937770;29;20211;-75
2022/06/24 04:31:06;;;;;;;3.97;3.13;;;;;;;;;;4937828;29;20655;-75
2022/06/24 04:33:36;;;;;;;3.25;2.95;;;;;;;;;;4936330;29;20624;-75
2022/06/24 04:36:04;;;;;;;3.58;3.20;;;;;;;;;;4938422;29;20683;-74
2022/06/24 04:38:48;;;;;;;3.53;3.20;;;;;;;;;;4937028;29;20211;-74
2022/06/24 04:41:17;;;;;;;4.80;2.92;;;;;;;;;;4929140;29;20231;-74
2022/06/24 04:43:46;;;;;;;3.40;3.10;;;;;;;;;;4938138;29;20306;-74
2022/06/24 04:46:14;;;;;;;5.07;3.30;;;;;;;;;;4937051;29;20206;-74
2022/06/24 04:48:45;;;;;;;3.25;3.05;;;;;;;;;;4937339;29;20239;-75
2022/06/24 04:51:21;;;;;;;4.85;3.15;;;;;;;;;;4940454;29;20263;-75
2022/06/24 04:53:49;;;;;;;3.60;2.97;;;;;;;;;;4937025;29;20211;-75
2022/06/24 04:56:18;;;;;;;3.00;2.80;;;;;;;;;;4936974;29;20203;-75
2022/06/24 04:58:46;;;;;;;3.63;2.92;;;;;;;;;;4937311;29;20204;-75
2022/06/24 05:01:15;;;;;;;3.38;2.92;;;;;;;;;;4936486;29;20251;-75
2022/06/24 05:03:45;;;;;;;3.17;2.72;;;;;;;;;;4935838;29;20219;-75
2022/06/24 05:06:14;;;;;;;3.35;2.78;;;;;;;;;;4937706;29;20680;-76
2022/06/24 05:08:43;;;;;;;3.97;2.88;;;;;;;;;;4932093;29;20204;-75
2022/06/24 05:11:13;;;;;;;4.72;3.13;;;;;;;;;;4937340;29;20211;-75
2022/06/24 05:13:42;;;;;;;3.55;2.58;;;;;;;;;;4931434;29;20628;-75
2022/06/24 05:16:10;;;;;;;4.53;3.10;;;;;;;;;;4936717;29;20250;-75
2022/06/24 05:19:01;;;;;;;3.60;2.95;;;;;;;;;;4928170;29;20214;-75
2022/06/24 05:21:29;;;;;;;4.18;2.75;;;;;;;;;;4932371;29;20660;-75
2022/06/24 05:23:58;;;;;;;3.70;2.83;;;;;;;;;;4931696;29;20314;-75
2022/06/24 05:26:27;;;;;;;3.85;2.72;;;;;;;;;;4930376;29;20222;-75
2022/06/24 05:28:55;;;;;;;6.57;3.05;;;;;;;;;;4927900;29;20259;-75
2022/06/24 05:31:24;;;;;;;3.63;2.75;;;;;;;;;;4936103;29;20290;-75
2022/06/24 05:33:53;;;;;;;4.05;3.00;;;;;;;;;;4936863;29;20207;-75
2022/06/24 05:36:26;;;;;;;5.15;2.95;;;;;;;;;;4935635;29;20294;-75
2022/06/24 05:38:55;;;;;;;4.43;3.28;;;;;;;;;;4925588;29;20242;-75
2022/06/24 05:44:53;;;;;;;5.20;3.40;;;;;;;;;;4933524;29;20670;-75
2022/06/24 05:47:22;;;;;;;4.88;2.75;;;;;;;;;;4936810;29;20282;-75
2022/06/24 05:49:51;;;;;;;3.97;2.72;;;;;;;;;;4934599;29;20298;-75
2022/06/24 05:55:02;;;;;;;3.85;2.75;;;;;;;;;;4936220;29;20700;-75
2022/06/24 05:55:09;;;;;;;2.72;2.47;;;;;;;;;;4923697;29;20306;-75
2022/06/24 05:57:37;;;;;;;4.13;2.80;;;;;;;;;;4936360;29;20721;-75
2022/06/24 06:00:07;;;;;;;4.15;2.85;;;;;;;;;;4935181;29;20235;-75
2022/06/24 06:02:36;;;;;;;5.93;2.85;;;;;;;;;;4936678;29;20213;-75
2022/06/24 06:05:09;;;;;;;5.07;2.97;;;;;;;;;;4936167;29;20314;-75
2022/06/24 06:07:39;;;;;;;3.97;3.17;;;;;;;;;;4936424;29;20211;-75
2022/06/24 06:10:08;;;;;;;3.58;2.90;;;;;;;;;;4935712;29;20266;-75
2022/06/24 06:12:36;;;;;;;5.35;2.90;;;;;;;;;;4935891;29;20211;-75
2022/06/24 06:15:05;;;;;;;3.95;2.83;;;;;;;;;;4935676;29;20231;-75
2022/06/24 06:17:34;;;;;;;5.35;2.70;;;;;;;;;;4936070;29;20295;-75
2022/06/24 06:20:03;;;;;;;3.38;2.75;;;;;;;;;;4935927;29;21254;-75
2022/06/24 06:22:31;;;;;;;5.90;2.50;;;;;;;;;;4936029;29;20601;-75
2022/06/24 06:25:02;;;;;;;3.03;2.38;;;;;;;;;;4935677;29;20242;-75
2022/06/24 06:27:30;;;;;;;5.30;2.60;;;;;;;;;;4935933;29;20557;-75
2022/06/24 06:29:59;;;;;;;4.82;2.60;;;;;;;;;;4935825;29;20206;-75
2022/06/24 06:32:28;;;;;;;4.53;2.70;;;;;;;;;;4935298;29;20267;-75
2022/06/24 06:35:01;;;;;;;4.78;2.50;;;;;;;;;;4935978;29;20246;-75
2022/06/24 06:37:29;;;;;;;4.35;2.60;;;;;;;;;;4935921;29;20237;-75
2022/06/24 06:39:58;;;;;;;3.85;2.50;;;;;;;;;;4936288;29;20207;-75
2022/06/24 06:42:28;;;;;;;4.93;2.38;;;;;;;;;;4934918;29;20203;-74
2022/06/24 06:44:57;;;;;;;5.38;2.80;;;;;;;;;;4936109;29;20318;-75
2022/06/24 06:47:26;;;;;;;3.47;2.30;;;;;;;;;;4940221;29;20209;-74
2022/06/24 06:49:54;;;;;;;4.03;2.38;;;;;;;;;;4936231;29;20203;-75
2022/06/24 06:52:23;;;;;;;6.18;2.90;;;;;;;;;;4934275;29;20211;-74
2022/06/24 06:54:51;;;;;;;6.65;2.50;;;;;;;;;;4941779;29;20282;-77
2022/06/24 06:57:20;;;;;;;6.05;2.40;;;;;;;;;;4941728;29;20210;-75
2022/06/24 06:59:51;;;;;;;4.85;2.50;;;;;;;;;;4942507;29;20230;-74
2022/06/24 07:02:19;;;;;;;4.13;2.35;;;;;;;;;;4942713;29;20549;-79
2022/06/24 07:04:48;;;;;;;3.05;2.17;;;;;;;;;;4943670;29;20684;-79
2022/06/24 07:07:16;;;;;;;3.10;2.20;;;;;;;;;;4942673;29;20218;-78
2022/06/24 07:09:45;;;;;;;5.57;2.50;;;;;;;;;;4942758;29;20620;-79
2022/06/24 07:12:14;;;;;;;8.20;2.75;;;;;;;;;;4943116;29;20281;-79
2022/06/24 07:14:42;;;;;;;5.15;2.60;;;;;;;;;;4942786;29;20281;-79
2022/06/24 07:17:16;;;;;;;4.45;2.63;;;;;;;;;;4942936;29;20210;-79
2022/06/24 07:19:44;;;;;;;5.93;2.78;;;;;;;;;;4942101;29;20211;-78
2022/06/24 07:22:13;;;;;;;5.30;2.60;;;;;;;;;;4943187;29;20218;-79
2022/06/24 07:24:42;;;;;;;3.38;2.55;;;;;;;;;;4942583;29;20241;-79
2022/06/24 07:27:11;;;;;;;5.38;2.90;;;;;;;;;;4942857;29;20191;-79
2022/06/24 07:29:40;;;;;;;3.60;2.60;;;;;;;;;;4942527;29;20215;-78
2022/06/24 07:32:09;;;;;;;4.55;2.60;;;;;;;;;;4942085;29;20201;-79
2022/06/24 07:34:39;;;;;;;4.25;2.67;;;;;;;;;;4942764;29;20227;-79
2022/06/24 07:37:07;;;;;;;5.28;2.70;;;;;;;;;;4942448;29;20207;-79
2022/06/24 07:39:43;;;;;;;5.03;2.42;;;;;;;;;;4942438;29;20246;-79
2022/06/24 07:42:11;;;;;;;5.22;2.85;;;;;;;;;;4941827;29;20222;-78
2022/06/24 07:44:42;;;;;;;3.72;2.70;;;;;;;;;;4942303;29;20233;-79
2022/06/24 07:47:11;;;;;;;5.15;2.83;;;;;;;;;;4942368;29;20278;-79
2022/06/24 07:49:41;;;;;;;5.65;2.40;;;;;;;;;;4942143;29;20211;-79
2022/06/24 07:52:10;;;;;;;5.45;2.75;;;;;;;;;;4941946;29;20222;-79
2022/06/24 07:54:39;;;;;;;3.67;2.50;;;;;;;;;;4941882;29;20223;-79
2022/06/24 07:57:06;;;;;;;5.18;2.55;;;;;;;;;;4942011;29;20569;-79
2022/06/24 07:59:36;;;;;;;4.65;2.60;;;;;;;;;;4938971;29;20203;-79
2022/06/24 08:02:06;;;;;;;7.55;2.85;;;;;;;;;;4939734;29;20188;-78
2022/06/24 08:04:34;;;;;;;5.28;2.60;;;;;;;;;;4939124;29;20306;-78
2022/06/24 08:07:05;;;;;;;4.72;2.60;;;;;;;;;;4939103;29;20668;-79
2022/06/24 08:09:35;;;;;;;6.10;2.35;;;;;;;;;;4939002;29;20198;-79
2022/06/24 08:12:04;;;;;;;3.50;2.05;;;;;;;;;;4938897;29;20188;-79
2022/06/24 08:14:33;;;;;;;4.47;2.38;;;;;;;;;;4938528;29;20235;-78
2022/06/24 08:17:01;;;;;;;4.43;2.58;;;;;;;;;;4938750;29;20206;-79
2022/06/24 08:19:29;;;;;;;7.38;2.38;;;;;;;;;;4938696;29;20211;-79
2022/06/24 08:21:58;;;;;;;4.78;2.50;;;;;;;;;;4938625;29;20659;-79
2022/06/24 08:24:28;;;;;;;4.35;2.58;;;;;;;;;;4938394;29;20234;-78
2022/06/24 08:26:56;;;;;;;7.85;2.63;;;;;;;;;;4938448;29;20213;-78
2022/06/24 08:29:25;;;;;;;3.70;2.47;;;;;;;;;;4938492;29;20219;-79
2022/06/24 08:31:54;;;;;;;6.47;2.60;;;;;;;;;;4938483;29;20606;-78
2022/06/24 08:34:23;;;;;;;6.05;2.78;;;;;;;;;;4938210;29;20629;-79
2022/06/24 08:36:52;;;;;;;4.15;2.20;;;;;;;;;;4938801;29;20210;-79
2022/06/24 08:39:21;;;;;;;5.03;2.28;;;;;;;;;;4938497;29;20207;-79
2022/06/24 08:41:53;;;;;;;4.45;2.00;;;;;;;;;;4939883;29;20668;-79
2022/06/24 08:44:22;;;;;;;3.67;2.15;;;;;;;;;;4939831;29;20226;-79
2022/06/24 08:46:51;;;;;;;3.42;2.25;;;;;;;;;;4939371;29;20231;-79
2022/06/24 08:49:20;;;;;;;4.20;2.22;;;;;;;;;;4938978;29;20215;-78
2022/06/24 08:51:50;;;;;;;4.22;2.33;;;;;;;;;;4938445;29;20211;-79
2022/06/24 08:54:19;;;;;;;5.85;2.03;;;;;;;;;;4939020;29;20623;-80
2022/06/24 08:56:56;;;;;;;5.35;2.28;;;;;;;;;;4942327;29;20286;-79
2022/06/24 08:59:25;;;;;;;4.55;2.20;;;;;;;;;;4939914;29;20222;-79
2022/06/24 09:01:53;;;;;;;3.10;2.00;;;;;;;;;;4945110;29;20211;-78
2022/06/24 09:04:23;;;;;;;3.78;2.03;;;;;;;;;;4946831;29;20230;-79
2022/06/24 09:06:51;;;;;;;4.72;2.20;;;;;;;;;;4950135;29;20223;-79
2022/06/24 09:09:24;;;;;;;4.10;2.20;;;;;;;;;;4943220;29;20215;-79
2022/06/24 09:11:54;;;;;;;4.72;2.58;;;;;;;;;;4945217;29;20211;-80
2022/06/24 09:14:24;;;;;;;3.42;2.17;;;;;;;;;;4944455;29;20243;-80
2022/06/24 09:16:52;;;;;;;3.53;2.17;;;;;;;;;;4949038;29;20195;-79
2022/06/24 09:19:24;;;;;;;4.00;1.88;;;;;;;;;;4948340;29;20207;-80
2022/06/24 09:21:59;;;;;;;2.92;1.90;;;;;;;;;;4948920;29;20222;-79
2022/06/24 09:24:43;;;;;;;4.60;1.98;;;;;;;;;;4947364;29;20318;-80
2022/06/24 09:27:12;;;;;;;3.88;1.90;;;;;;;;;;4948968;29;20223;-79
2022/06/24 09:29:51;;;;;;;3.15;1.90;;;;;;;;;;4943650;29;20206;-79
2022/06/24 09:32:20;;;;;;;4.18;1.67;;;;;;;;;;4949252;29;20219;-79
2022/06/24 09:35:06;;;;;;;4.82;1.73;;;;;;;;;;4948151;29;20211;-79
2022/06/24 09:40:23;;;;;;;3.28;1.95;;;;;;;;;;4949315;29;20238;-79
2022/06/24 09:42:56;;;;;;;4.07;1.88;;;;;;;;;;4946195;29;20215;-79
2022/06/24 09:45:28;;;;;;;3.03;1.80;;;;;;;;;;4946506;29;20254;-79
2022/06/24 09:47:58;;;;;;;4.57;2.17;;;;;;;;;;4951163;29;20195;-79
2022/06/24 09:50:27;;;;;;;5.85;2.05;;;;;;;;;;4949834;29;20242;-79
2022/06/24 09:52:56;;;;;;;2.42;1.88;;;;;;;;;;4945930;29;20207;-79
2022/06/24 09:55:25;;;;;;;5.50;2.00;;;;;;;;;;4945978;29;20235;-79
2022/06/24 09:57:54;;;;;;;2.78;1.92;;;;;;;;;;4948549;29;20215;-79
2022/06/24 10:03:11;;;;;;;5.15;1.90;;;;;;;;;;4945973;29;20191;-79
2022/06/24 10:05:42;;;;;;;4.88;2.00;;;;;;;;;;4944850;29;20703;-79
2022/06/24 10:08:14;;;;;;;2.55;1.80;;;;;;;;;;4947543;29;20690;-79
2022/06/24 10:10:47;;;;;;;3.50;1.90;;;;;;;;;;4943777;29;20207;-79
2022/06/24 10:13:24;;;;;;;4.22;1.70;;;;;;;;;;4942555;29;20214;-79
2022/06/24 10:15:53;;;;;;;3.65;1.27;;;;;;;;;;4942778;29;20714;-79
2022/06/24 10:18:27;;;;;;;3.38;1.25;;;;;;;;;;4943423;29;20203;-79
2022/06/24 10:20:58;;;;;;;3.15;1.50;;;;;;;;;;4939507;29;20223;-78
2022/06/24 10:23:43;;;;;;;2.95;1.52;;;;;;;;;;4943120;29;20210;-79
2022/06/24 10:26:16;;;;;;;3.38;1.60;;;;;;;;;;4946926;29;20676;-80
2022/06/24 10:29:18;;;;;;;4.60;1.60;;;;;;;;;;4945419;29;20211;-79
2022/06/24 10:32:11;;;;;;;5.00;1.77;;;;;;;;;;4946501;29;20214;-79
2022/06/24 10:34:44;;;;;;;2.83;1.50;;;;;;;;;;4943085;29;20274;-79
2022/06/24 10:37:27;;;;;;;2.78;1.63;;;;;;;;;;4945027;29;20662;-79
2022/06/24 10:39:57;;;;;;;2.92;1.58;;;;;;;;;;4955564;29;20218;-79
2022/06/24 10:42:26;;;;;;;4.10;1.60;;;;;;;;;;4962051;29;20686;-79
2022/06/24 10:45:01;;;;;;;3.78;1.80;;;;;;;;;;4962578;28;20226;-79
2022/06/24 10:47:31;;;;;;;3.72;1.73;;;;;;;;;;4963456;29;20327;-79
2022/06/24 10:50:11;;;;;;;2.95;1.52;;;;;;;;;;4960373;29;20206;-79
2022/06/24 10:52:45;;;;;;;2.17;1.60;;;;;;;;;;4961009;29;20246;-79
2022/06/24 10:55:44;;;;;;;3.33;1.40;;;;;;;;;;4959364;28;20230;-79
2022/06/24 10:58:18;;;;;;;3.53;1.48;;;;;;;;;;4908005;29;20185;-79
2022/06/24 11:00:54;;;;;;;3.72;1.63;;;;;;;;;;4938135;29;20215;-79
2022/06/24 11:03:38;;;;;;;1.50;1.35;;;;;;;;;;4944464;29;20258;-79
2022/06/24 11:06:12;;;;;;;3.63;1.60;;;;;;;;;;4943883;29;20630;-79
2022/06/24 11:08:41;;;;;;;4.13;1.58;;;;;;;;;;4947066;29;20625;-78
2022/06/24 11:11:09;;;;;;;3.70;1.60;;;;;;;;;;4960284;29;20206;-79
2022/06/24 11:13:38;;;;;;;2.78;1.40;;;;;;;;;;4947905;29;20615;-79
2022/06/24 11:16:07;;;;;;;3.25;1.42;;;;;;;;;;4939211;29;20222;-79
2022/06/24 11:18:38;;;;;;;2.75;1.50;;;;;;;;;;4939155;29;20591;-79
2022/06/24 11:21:17;;;;;;;3.45;1.60;;;;;;;;;;4933400;29;20279;-74
2022/06/24 11:23:47;;;;;;;2.85;1.63;;;;;;;;;;4923042;29;20230;-75
2022/06/24 11:26:16;;;;;;;1.85;1.30;;;;;;;;;;4923027;29;20199;-74
2022/06/24 11:28:51;;;;;;;3.63;1.70;;;;;;;;;;4927939;29;20665;-74
2022/06/24 11:31:21;;;;;;;4.05;1.50;;;;;;;;;;4932425;29;20195;-74
2022/06/24 11:33:51;;;;;;;1.95;1.60;;;;;;;;;;4933632;29;20626;-75
2022/06/24 11:36:21;;;;;;;2.17;1.63;;;;;;;;;;4933455;29;20270;-75
2022/06/24 11:38:51;;;;;;;2.60;1.42;;;;;;;;;;4931564;29;20207;-75
2022/06/24 11:41:23;;;;;;;2.72;1.80;;;;;;;;;;4937043;29;20207;-74
2022/06/24 11:44:10;;;;;;;2.00;1.42;;;;;;;;;;4934920;29;20227;-74
2022/06/24 11:46:38;;;;;;;3.72;1.77;;;;;;;;;;4937239;29;20247;-74
2022/06/24 11:49:08;;;;;;;3.75;1.70;;;;;;;;;;4938481;29;20239;-75
2022/06/24 11:51:38;;;;;;;3.63;1.67;;;;;;;;;;4937568;29;20225;-75
2022/06/24 11:54:07;;;;;;;3.35;1.70;;;;;;;;;;4938865;29;20227;-74
2022/06/24 11:56:37;;;;;;;2.78;1.70;;;;;;;;;;4922652;29;20691;-75
2022/06/24 11:59:06;;;;;;;5.03;1.98;;;;;;;;;;4920278;29;20676;-74
2022/06/24 12:01:38;;;;;;;5.95;1.90;;;;;;;;;;4927395;29;20333;-74
2022/06/24 12:04:08;;;;;;;3.10;1.83;;;;;;;;;;4938432;29;20258;-74
2022/06/24 12:06:39;;;;;;;4.18;1.80;;;;;;;;;;4937208;29;20195;-74
2022/06/24 12:09:09;;;;;;;4.90;1.77;;;;;;;;;;4937039;29;20203;-76
2022/06/24 12:11:38;;;;;;;2.53;1.63;;;;;;;;;;4938320;29;20576;-76
2022/06/24 12:14:08;;;;;;;4.90;2.13;;;;;;;;;;4936161;29;20250;-77
2022/06/24 12:16:51;;;;;;;7.00;1.80;;;;;;;;;;4937137;29;20214;-77
2022/06/24 12:19:21;;;;;;;3.97;2.10;;;;;;;;;;4923733;29;20203;-76
2022/06/24 12:21:51;;;;;;;4.00;1.90;;;;;;;;;;4942760;29;20253;-76
2022/06/24 12:24:23;;;;;;;5.20;2.00;;;;;;;;;;4921494;29;20228;-76
2022/06/24 12:26:52;;;;;;;3.03;1.80;;;;;;;;;;4925361;29;20694;-77
2022/06/24 12:29:27;;;;;;;3.72;1.90;;;;;;;;;;4928359;29;20215;-77
2022/06/24 12:31:56;;;;;;;5.55;1.90;;;;;;;;;;4929445;29;20637;-76
2022/06/24 12:34:27;;;;;;;2.60;1.90;;;;;;;;;;4956760;28;20606;-76
2022/06/24 12:36:59;;;;;;;2.40;1.75;;;;;;;;;;4935788;29;20211;-76
2022/06/24 12:39:28;;;;;;;2.22;1.67;;;;;;;;;;4937330;29;20203;-76
2022/06/24 12:41:57;;;;;;;4.60;1.83;;;;;;;;;;4936423;29;20239;-76
2022/06/24 12:44:25;;;;;;;3.97;1.70;;;;;;;;;;4932585;29;20563;-76
2022/06/24 12:52:33;;;;;;;3.90;1.73;;;;;;;;;;4936776;29;20235;-76
2022/06/24 12:55:02;;;;;;;2.22;1.80;;;;;;;;;;4933129;29;20231;-76
2022/06/24 12:57:32;;;;;;;2.58;1.90;;;;;;;;;;4936899;29;20298;-75
2022/06/24 13:00:08;;;;;;;2.22;1.83;;;;;;;;;;4938079;29;20578;-76
2022/06/24 13:02:37;;;;;;;3.08;2.10;;;;;;;;;;4926594;29;20568;-75
2022/06/24 13:05:06;;;;;;;4.63;1.80;;;;;;;;;;4932912;29;20223;-77
2022/06/24 13:07:38;;;;;;;2.75;1.90;;;;;;;;;;4934848;29;20619;-76
2022/06/24 13:10:07;;;;;;;3.25;1.90;;;;;;;;;;4934104;29;20234;-76
2022/06/24 13:12:37;;;;;;;2.83;1.90;;;;;;;;;;4931076;29;20199;-75
2022/06/24 13:15:06;;;;;;;2.45;1.63;;;;;;;;;;4933113;29;20227;-76
2022/06/24 13:17:35;;;;;;;2.97;1.75;;;;;;;;;;4930798;29;20203;-76
2022/06/24 13:20:05;;;;;;;3.28;1.95;;;;;;;;;;4933185;29;20207;-76
2022/06/24 13:22:33;;;;;;;2.95;1.55;;;;;;;;;;4934967;29;20290;-76
2022/06/24 13:25:05;;;;;;;1.58;1.45;;;;;;;;;;4934773;29;20227;-76
2022/06/24 13:27:34;;;;;;;4.43;1.90;;;;;;;;;;4924871;29;20256;-76
2022/06/24 13:30:04;;;;;;;3.58;1.85;;;;;;;;;;4937942;29;20210;-76
2022/06/24 13:32:35;;;;;;;4.25;1.83;;;;;;;;;;4918233;29;20207;-76
2022/06/24 13:35:03;;;;;;;3.20;1.95;;;;;;;;;;4935156;29;20234;-76
2022/06/24 13:37:32;;;;;;;4.43;2.03;;;;;;;;;;4933496;29;20203;-76
2022/06/24 13:40:02;;;;;;;1.88;1.50;;;;;;;;;;4935240;29;20743;-77
2022/06/24 13:42:33;;;;;;;3.60;1.95;;;;;;;;;;4935181;29;20208;-77
2022/06/24 13:45:02;;;;;;;2.97;1.73;;;;;;;;;;4935600;29;20231;-77
2022/06/24 13:47:31;;;;;;;2.88;1.77;;;;;;;;;;4927799;29;20668;-76
2022/06/24 13:50:00;;;;;;;1.60;1.42;;;;;;;;;;4926160;29;20219;-77
2022/06/24 13:52:29;;;;;;;3.28;2.10;;;;;;;;;;4931551;29;20207;-77
2022/06/24 13:55:00;;;;;;;2.05;1.60;;;;;;;;;;4935841;29;20230;-76
2022/06/24 13:57:28;;;;;;;2.88;1.83;;;;;;;;;;4927151;29;20214;-76
2022/06/24 14:00:01;;;;;;;3.42;1.52;;;;;;;;;;4936882;29;20207;-76
2022/06/24 14:02:29;;;;;;;2.25;1.38;;;;;;;;;;4936466;29;20286;-76
2022/06/24 14:04:59;;;;;;;2.97;1.92;;;;;;;;;;4936684;29;20257;-75
2022/06/24 14:07:28;;;;;;;2.80;1.55;;;;;;;;;;4935646;29;20239;-76
2022/06/24 14:09:58;;;;;;;2.15;1.60;;;;;;;;;;4936051;29;20214;-75
2022/06/24 14:12:46;;;;;;;3.05;1.65;;;;;;;;;;4936022;29;20211;-75
2022/06/24 14:15:16;;;;;;;2.13;1.58;;;;;;;;;;4935820;29;20238;-76
2022/06/24 14:17:45;;;;;;;3.17;1.85;;;;;;;;;;4935205;29;20573;-76
2022/06/24 14:20:16;;;;;;;2.78;1.67;;;;;;;;;;4936626;29;20199;-77
2022/06/24 14:25:27;;;;;;;5.57;3.25;;;;;;;;;;4933367;29;20266;-76
2022/06/24 14:27:55;;;;;;;9.43;5.00;;;;;;;;;;4937292;29;20211;-77
2022/06/24 14:30:25;;;;;;;7.22;5.10;;;;;;;;;;4936365;29;20222;-77
2022/06/24 14:32:54;;;;;;;7.15;5.03;;;;;;;;;;4931656;29;20206;-77
2022/06/24 14:35:23;;;;;;;6.70;5.78;;;;;;;;;;4934524;29;20247;-76
2022/06/24 14:40:38;;;;;;;7.32;5.85;;;;;;;;;;4933974;29;20580;-76
2022/06/24 14:43:18;;;;;;;5.90;5.30;;;;;;;;;;4935860;29;20203;-76
2022/06/24 14:45:49;;;;;;;6.00;5.50;;;;;;;;;;4935110;29;20232;-76
2022/06/24 14:51:27;;;;;;;5.85;5.03;;;;;;;;;;4928035;29;20207;-75
2022/06/24 14:53:56;;;;;;;4.68;4.28;;;;;;;;;;4930439;29;20278;-75
2022/06/24 14:56:25;;;;;;;4.97;4.57;;;;;;;;;;4932669;29;20219;-76
2022/06/24 14:58:53;;;;;;;4.63;4.32;;;;;;;;;;4930686;29;20290;-77
2022/06/24 15:01:23;;;;;;;3.85;3.55;;;;;;;;;;4929662;29;20215;-76
2022/06/24 15:03:52;;;;;;;4.40;4.00;;;;;;;;;;4927765;29;20219;-76
2022/06/24 15:06:20;;;;;;;4.60;4.20;;;;;;;;;;4924145;29;20214;-75
2022/06/24 15:08:49;;;;;;;4.88;4.40;;;;;;;;;;4933916;29;20246;-76
2022/06/24 15:11:24;;;;;;;4.63;4.20;;;;;;;;;;4937724;29;20635;-75
2022/06/24 15:13:52;;;;;;;4.50;4.10;;;;;;;;;;4931675;29;20223;-76
2022/06/24 15:16:21;;;;;;;3.40;3.10;;;;;;;;;;4933836;29;20242;-76
2022/06/24 15:18:51;;;;;;;2.83;2.63;;;;;;;;;;4933474;29;20207;-76
2022/06/24 15:21:20;;;;;;;3.20;2.78;;;;;;;;;;4937439;29;20226;-76
2022/06/24 15:23:49;;;;;;;2.95;2.47;;;;;;;;;;4931211;29;20568;-76
2022/06/24 15:26:18;;;;;;;2.55;2.35;;;;;;;;;;4933984;29;20207;-76
2022/06/24 15:28:48;;;;;;;4.30;2.63;;;;;;;;;;4936389;29;20219;-76